sensor_id;sensor_type;location;lat;lon;timestamp;P1;durP1;ratioP1;P2;durP2;ratioP2
80854;SDS011;70272;49.222;-122.892;2024-02-28T00:02:04;3.80;;;2.17;;
80854;SDS011;70272;49.222;-122.892;2024-02-28T00:04:30;2.85;;;2.03;;
80854;SDS011;70272;49.222;-122.892;2024-02-28T00:06:57;3.10;;;1.80;;
80854;SDS011;70272;49.222;-122.892;2024-02-28T00:09:23;5.40;;;2.28;;
80854;SDS011;70272;49.222;-122.892;2024-02-28T00:11:50;7.30;;;3.63;;
80854;SDS011;70272;49.222;-122.892;2024-02-28T00:14:16;4.97;;;2.33;;
80854;SDS011;70272;49.222;-122.892;2024-02-28T00:16:43;4.57;;;2.45;;
80854;SDS011;70272;49.222;-122.892;2024-02-28T00:19:10;2.30;;;1.90;;
80854;SDS011;70272;49.222;-122.892;2024-02-28T00:21:38;2.95;;;1.90;;
80854;SDS011;70272;49.222;-122.892;2024-02-28T00:24:05;5.18;;;1.92;;
80854;SDS011;70272;49.222;-122.892;2024-02-28T00:26:31;8.38;;;1.95;;
80854;SDS011;70272;49.222;-122.892;2024-02-28T00:28:58;5.35;;;2.50;;
80854;SDS011;70272;49.222;-122.892;2024-02-28T00:31:25;4.22;;;2.13;;
80854;SDS011;70272;49.222;-122.892;2024-02-28T00:33:51;3.85;;;1.77;;
80854;SDS011;70272;49.222;-122.892;2024-02-28T00:36:18;2.72;;;1.80;;
80854;SDS011;70272;49.222;-122.892;2024-02-28T00:38:44;3.08;;;1.95;;
80854;SDS011;70272;49.222;-122.892;2024-02-28T00:41:10;3.78;;;1.92;;
80854;SDS011;70272;49.222;-122.892;2024-02-28T00:43:37;1.73;;;1.50;;
80854;SDS011;70272;49.222;-122.892;2024-02-28T00:46:03;2.72;;;1.90;;
80854;SDS011;70272;49.222;-122.892;2024-02-28T00:48:29;2.60;;;1.50;;
80854;SDS011;70272;49.222;-122.892;2024-02-28T00:50:55;4.15;;;2.00;;
80854;SDS011;70272;49.222;-122.892;2024-02-28T00:53:22;2.10;;;1.50;;
80854;SDS011;70272;49.222;-122.892;2024-02-28T00:55:48;3.05;;;1.70;;
80854;SDS011;70272;49.222;-122.892;2024-02-28T00:58:17;2.75;;;1.52;;
80854;SDS011;70272;49.222;-122.892;2024-02-28T01:00:43;2.30;;;1.67;;
80854;SDS011;70272;49.222;-122.892;2024-02-28T01:03:09;2.92;;;1.80;;
80854;SDS011;70272;49.222;-122.892;2024-02-28T01:05:39;3.38;;;1.83;;
80854;SDS011;70272;49.222;-122.892;2024-02-28T01:08:05;2.95;;;1.90;;
80854;SDS011;70272;49.222;-122.892;2024-02-28T01:10:33;3.55;;;1.35;;
80854;SDS011;70272;49.222;-122.892;2024-02-28T01:12:59;2.10;;;1.63;;
80854;SDS011;70272;49.222;-122.892;2024-02-28T01:15:26;3.67;;;1.73;;
80854;SDS011;70272;49.222;-122.892;2024-02-28T01:17:52;3.33;;;1.50;;
80854;SDS011;70272;49.222;-122.892;2024-02-28T01:20:18;4.55;;;1.80;;
80854;SDS011;70272;49.222;-122.892;2024-02-28T01:22:45;4.53;;;1.77;;
80854;SDS011;70272;49.222;-122.892;2024-02-28T01:25:11;2.60;;;1.63;;
80854;SDS011;70272;49.222;-122.892;2024-02-28T01:27:37;3.05;;;1.48;;
80854;SDS011;70272;49.222;-122.892;2024-02-28T01:30:03;3.05;;;1.40;;
80854;SDS011;70272;49.222;-122.892;2024-02-28T01:32:31;1.65;;;1.50;;
80854;SDS011;70272;49.222;-122.892;2024-02-28T01:34:57;3.30;;;1.63;;
80854;SDS011;70272;49.222;-122.892;2024-02-28T01:37:23;2.72;;;1.45;;
80854;SDS011;70272;49.222;-122.892;2024-02-28T01:39:50;3.30;;;1.50;;
80854;SDS011;70272;49.222;-122.892;2024-02-28T01:42:16;3.60;;;1.65;;
80854;SDS011;70272;49.222;-122.892;2024-02-28T01:44:44;2.10;;;1.73;;
80854;SDS011;70272;49.222;-122.892;2024-02-28T01:47:11;6.10;;;2.45;;
80854;SDS011;70272;49.222;-122.892;2024-02-28T01:49:38;2.20;;;1.40;;
80854;SDS011;70272;49.222;-122.892;2024-02-28T01:52:04;4.72;;;2.35;;
80854;SDS011;70272;49.222;-122.892;2024-02-28T01:54:31;3.50;;;1.45;;
80854;SDS011;70272;49.222;-122.892;2024-02-28T01:56:57;3.10;;;1.63;;
80854;SDS011;70272;49.222;-122.892;2024-02-28T01:59:24;2.83;;;1.63;;
80854;SDS011;70272;49.222;-122.892;2024-02-28T02:01:51;1.50;;;1.40;;
80854;SDS011;70272;49.222;-122.892;2024-02-28T02:04:18;2.20;;;1.70;;
80854;SDS011;70272;49.222;-122.892;2024-02-28T02:06:44;2.38;;;1.75;;
80854;SDS011;70272;49.222;-122.892;2024-02-28T02:09:12;1.85;;;1.40;;
80854;SDS011;70272;49.222;-122.892;2024-02-28T02:11:39;2.33;;;1.77;;
80854;SDS011;70272;49.222;-122.892;2024-02-28T02:14:05;2.78;;;2.00;;
80854;SDS011;70272;49.222;-122.892;2024-02-28T02:16:31;2.92;;;1.77;;
80854;SDS011;70272;49.222;-122.892;2024-02-28T02:18:58;3.40;;;1.33;;
80854;SDS011;70272;49.222;-122.892;2024-02-28T02:21:26;2.83;;;1.40;;
80854;SDS011;70272;49.222;-122.892;2024-02-28T02:23:56;1.77;;;1.60;;
80854;SDS011;70272;49.222;-122.892;2024-02-28T02:26:23;1.92;;;1.33;;
80854;SDS011;70272;49.222;-122.892;2024-02-28T02:28:49;2.20;;;1.45;;
80854;SDS011;70272;49.222;-122.892;2024-02-28T02:31:15;1.50;;;1.00;;
80854;SDS011;70272;49.222;-122.892;2024-02-28T02:33:42;2.35;;;1.85;;
80854;SDS011;70272;49.222;-122.892;2024-02-28T02:36:08;2.53;;;1.75;;
80854;SDS011;70272;49.222;-122.892;2024-02-28T02:38:34;2.20;;;1.55;;
80854;SDS011;70272;49.222;-122.892;2024-02-28T02:41:00;2.60;;;1.38;;
80854;SDS011;70272;49.222;-122.892;2024-02-28T02:43:27;2.35;;;1.58;;
80854;SDS011;70272;49.222;-122.892;2024-02-28T02:45:53;1.63;;;1.30;;
80854;SDS011;70272;49.222;-122.892;2024-02-28T02:48:19;3.55;;;1.73;;
80854;SDS011;70272;49.222;-122.892;2024-02-28T02:50:45;2.78;;;1.85;;
80854;SDS011;70272;49.222;-122.892;2024-02-28T02:53:12;1.73;;;1.48;;
80854;SDS011;70272;49.222;-122.892;2024-02-28T02:55:39;1.33;;;1.17;;
80854;SDS011;70272;49.222;-122.892;2024-02-28T03:00:31;4.30;;;2.00;;
80854;SDS011;70272;49.222;-122.892;2024-02-28T03:02:57;3.72;;;1.40;;
80854;SDS011;70272;49.222;-122.892;2024-02-28T03:07:49;3.85;;;2.30;;
80854;SDS011;70272;49.222;-122.892;2024-02-28T03:10:16;1.67;;;1.38;;
80854;SDS011;70272;49.222;-122.892;2024-02-28T03:12:42;2.47;;;1.83;;
80854;SDS011;70272;49.222;-122.892;2024-02-28T03:15:09;1.90;;;1.50;;
80854;SDS011;70272;49.222;-122.892;2024-02-28T03:17:35;2.45;;;1.55;;
80854;SDS011;70272;49.222;-122.892;2024-02-28T03:20:01;4.30;;;1.92;;
80854;SDS011;70272;49.222;-122.892;2024-02-28T03:22:28;2.42;;;1.63;;
80854;SDS011;70272;49.222;-122.892;2024-02-28T03:24:55;3.28;;;2.50;;
80854;SDS011;70272;49.222;-122.892;2024-02-28T03:29:47;3.40;;;1.92;;
80854;SDS011;70272;49.222;-122.892;2024-02-28T03:32:13;5.22;;;1.63;;
80854;SDS011;70272;49.222;-122.892;2024-02-28T03:34:40;2.88;;;1.88;;
80854;SDS011;70272;49.222;-122.892;2024-02-28T03:39:32;3.20;;;2.22;;
80854;SDS011;70272;49.222;-122.892;2024-02-28T03:41:59;1.88;;;1.70;;
80854;SDS011;70272;49.222;-122.892;2024-02-28T03:46:51;2.80;;;2.08;;
80854;SDS011;70272;49.222;-122.892;2024-02-28T03:51:43;2.30;;;1.65;;
80854;SDS011;70272;49.222;-122.892;2024-02-28T03:54:09;2.13;;;1.60;;
80854;SDS011;70272;49.222;-122.892;2024-02-28T03:59:01;4.68;;;1.98;;
80854;SDS011;70272;49.222;-122.892;2024-02-28T04:01:29;2.80;;;1.58;;
80854;SDS011;70272;49.222;-122.892;2024-02-28T04:03:56;4.63;;;1.60;;
80854;SDS011;70272;49.222;-122.892;2024-02-28T04:06:22;3.55;;;2.05;;
80854;SDS011;70272;49.222;-122.892;2024-02-28T04:08:48;4.47;;;1.55;;
80854;SDS011;70272;49.222;-122.892;2024-02-28T04:13:40;2.42;;;1.60;;
80854;SDS011;70272;49.222;-122.892;2024-02-28T04:16:07;2.15;;;1.08;;
80854;SDS011;70272;49.222;-122.892;2024-02-28T04:18:35;2.47;;;1.90;;
80854;SDS011;70272;49.222;-122.892;2024-02-28T04:21:01;1.95;;;1.48;;
80854;SDS011;70272;49.222;-122.892;2024-02-28T04:23:28;2.72;;;1.75;;
80854;SDS011;70272;49.222;-122.892;2024-02-28T04:28:20;1.35;;;1.13;;
80854;SDS011;70272;49.222;-122.892;2024-02-28T04:30:46;4.10;;;2.28;;
80854;SDS011;70272;49.222;-122.892;2024-02-28T04:35:38;1.55;;;1.35;;
80854;SDS011;70272;49.222;-122.892;2024-02-28T04:40:30;3.78;;;1.70;;
80854;SDS011;70272;49.222;-122.892;2024-02-28T04:42:57;2.53;;;1.20;;
80854;SDS011;70272;49.222;-122.892;2024-02-28T04:45:23;2.10;;;1.55;;
80854;SDS011;70272;49.222;-122.892;2024-02-28T04:47:49;2.03;;;1.67;;
80854;SDS011;70272;49.222;-122.892;2024-02-28T04:50:17;1.95;;;1.50;;
80854;SDS011;70272;49.222;-122.892;2024-02-28T04:52:44;1.98;;;1.40;;
80854;SDS011;70272;49.222;-122.892;2024-02-28T04:55:10;1.60;;;1.23;;
80854;SDS011;70272;49.222;-122.892;2024-02-28T04:57:37;2.55;;;1.75;;
80854;SDS011;70272;49.222;-122.892;2024-02-28T05:00:04;1.90;;;1.38;;
80854;SDS011;70272;49.222;-122.892;2024-02-28T05:02:30;2.08;;;1.33;;
80854;SDS011;70272;49.222;-122.892;2024-02-28T05:07:24;1.25;;;1.15;;
80854;SDS011;70272;49.222;-122.892;2024-02-28T05:09:50;1.75;;;1.48;;
80854;SDS011;70272;49.222;-122.892;2024-02-28T05:12:16;1.40;;;1.30;;
80854;SDS011;70272;49.222;-122.892;2024-02-28T05:17:09;1.75;;;1.50;;
80854;SDS011;70272;49.222;-122.892;2024-02-28T05:19:35;1.23;;;0.98;;
80854;SDS011;70272;49.222;-122.892;2024-02-28T05:22:01;1.42;;;1.20;;
80854;SDS011;70272;49.222;-122.892;2024-02-28T05:24:28;2.03;;;0.75;;
80854;SDS011;70272;49.222;-122.892;2024-02-28T05:26:54;2.08;;;1.40;;
80854;SDS011;70272;49.222;-122.892;2024-02-28T05:29:20;1.33;;;1.23;;
80854;SDS011;70272;49.222;-122.892;2024-02-28T05:31:47;3.15;;;1.40;;
80854;SDS011;70272;49.222;-122.892;2024-02-28T05:34:13;1.27;;;1.17;;
80854;SDS011;70272;49.222;-122.892;2024-02-28T05:36:40;3.47;;;0.98;;
80854;SDS011;70272;49.222;-122.892;2024-02-28T05:39:07;1.13;;;1.02;;
80854;SDS011;70272;49.222;-122.892;2024-02-28T05:41:33;2.03;;;1.30;;
80854;SDS011;70272;49.222;-122.892;2024-02-28T05:44:00;1.77;;;1.17;;
80854;SDS011;70272;49.222;-122.892;2024-02-28T05:46:26;2.72;;;1.30;;
80854;SDS011;70272;49.222;-122.892;2024-02-28T05:48:52;1.58;;;1.20;;
80854;SDS011;70272;49.222;-122.892;2024-02-28T05:51:19;2.00;;;1.40;;
80854;SDS011;70272;49.222;-122.892;2024-02-28T05:53:45;2.30;;;1.67;;
80854;SDS011;70272;49.222;-122.892;2024-02-28T05:56:11;1.80;;;1.05;;
80854;SDS011;70272;49.222;-122.892;2024-02-28T05:58:45;0.63;;;0.57;;
80854;SDS011;70272;49.222;-122.892;2024-02-28T06:01:16;1.05;;;0.90;;
80854;SDS011;70272;49.222;-122.892;2024-02-28T06:03:42;1.45;;;1.23;;
80854;SDS011;70272;49.222;-122.892;2024-02-28T06:06:11;3.50;;;1.17;;
80854;SDS011;70272;49.222;-122.892;2024-02-28T06:08:38;1.08;;;0.90;;
80854;SDS011;70272;49.222;-122.892;2024-02-28T06:11:07;1.33;;;1.15;;
80854;SDS011;70272;49.222;-122.892;2024-02-28T06:13:33;2.45;;;0.95;;
80854;SDS011;70272;49.222;-122.892;2024-02-28T06:16:00;2.08;;;1.40;;
80854;SDS011;70272;49.222;-122.892;2024-02-28T06:18:27;1.38;;;1.23;;
80854;SDS011;70272;49.222;-122.892;2024-02-28T06:20:53;2.83;;;1.40;;
80854;SDS011;70272;49.222;-122.892;2024-02-28T06:23:20;0.90;;;0.90;;
80854;SDS011;70272;49.222;-122.892;2024-02-28T06:25:47;1.80;;;1.65;;
80854;SDS011;70272;49.222;-122.892;2024-02-28T06:28:13;1.30;;;1.20;;
80854;SDS011;70272;49.222;-122.892;2024-02-28T06:30:40;2.40;;;1.48;;
80854;SDS011;70272;49.222;-122.892;2024-02-28T06:33:06;1.90;;;1.20;;
80854;SDS011;70272;49.222;-122.892;2024-02-28T06:35:34;1.35;;;1.20;;
80854;SDS011;70272;49.222;-122.892;2024-02-28T06:38:00;1.55;;;1.20;;
80854;SDS011;70272;49.222;-122.892;2024-02-28T06:40:27;0.95;;;0.60;;
80854;SDS011;70272;49.222;-122.892;2024-02-28T06:42:54;1.75;;;1.33;;
80854;SDS011;70272;49.222;-122.892;2024-02-28T06:47:46;1.67;;;1.30;;
80854;SDS011;70272;49.222;-122.892;2024-02-28T06:50:13;1.45;;;1.13;;
80854;SDS011;70272;49.222;-122.892;2024-02-28T06:52:41;2.17;;;1.42;;
80854;SDS011;70272;49.222;-122.892;2024-02-28T06:55:08;1.75;;;1.30;;
80854;SDS011;70272;49.222;-122.892;2024-02-28T06:57:37;0.93;;;0.93;;
80854;SDS011;70272;49.222;-122.892;2024-02-28T07:00:05;1.48;;;1.38;;
80854;SDS011;70272;49.222;-122.892;2024-02-28T07:02:35;1.80;;;1.30;;
80854;SDS011;70272;49.222;-122.892;2024-02-28T07:05:02;1.30;;;1.20;;
80854;SDS011;70272;49.222;-122.892;2024-02-28T07:07:30;1.20;;;1.10;;
80854;SDS011;70272;49.222;-122.892;2024-02-28T07:09:57;1.33;;;1.23;;
80854;SDS011;70272;49.222;-122.892;2024-02-28T07:12:23;1.70;;;1.38;;
80854;SDS011;70272;49.222;-122.892;2024-02-28T07:14:50;1.23;;;1.20;;
80854;SDS011;70272;49.222;-122.892;2024-02-28T07:17:17;2.13;;;1.10;;
80854;SDS011;70272;49.222;-122.892;2024-02-28T07:19:43;0.70;;;0.70;;
80854;SDS011;70272;49.222;-122.892;2024-02-28T07:22:09;0.50;;;0.50;;
80854;SDS011;70272;49.222;-122.892;2024-02-28T07:27:02;0.75;;;0.75;;
80854;SDS011;70272;49.222;-122.892;2024-02-28T07:29:29;1.00;;;0.90;;
80854;SDS011;70272;49.222;-122.892;2024-02-28T07:31:55;1.35;;;0.88;;
80854;SDS011;70272;49.222;-122.892;2024-02-28T07:34:22;0.85;;;0.85;;
80854;SDS011;70272;49.222;-122.892;2024-02-28T07:36:48;1.90;;;1.40;;
80854;SDS011;70272;49.222;-122.892;2024-02-28T07:39:15;0.88;;;0.82;;
80854;SDS011;70272;49.222;-122.892;2024-02-28T07:41:41;1.10;;;1.02;;
80854;SDS011;70272;49.222;-122.892;2024-02-28T07:46:34;2.17;;;1.08;;
80854;SDS011;70272;49.222;-122.892;2024-02-28T07:49:01;1.75;;;0.47;;
80854;SDS011;70272;49.222;-122.892;2024-02-28T07:51:27;1.13;;;0.98;;
80854;SDS011;70272;49.222;-122.892;2024-02-28T07:53:54;0.63;;;0.63;;
80854;SDS011;70272;49.222;-122.892;2024-02-28T07:56:21;1.13;;;1.10;;
80854;SDS011;70272;49.222;-122.892;2024-02-28T07:58:47;0.95;;;0.90;;
80854;SDS011;70272;49.222;-122.892;2024-02-28T08:01:14;1.25;;;0.80;;
80854;SDS011;70272;49.222;-122.892;2024-02-28T08:03:42;1.45;;;1.00;;
80854;SDS011;70272;49.222;-122.892;2024-02-28T08:06:08;1.17;;;0.90;;
80854;SDS011;70272;49.222;-122.892;2024-02-28T08:08:36;1.15;;;0.65;;
80854;SDS011;70272;49.222;-122.892;2024-02-28T08:11:02;0.65;;;0.63;;
80854;SDS011;70272;49.222;-122.892;2024-02-28T08:13:29;2.05;;;0.70;;
80854;SDS011;70272;49.222;-122.892;2024-02-28T08:15:58;0.75;;;0.75;;
80854;SDS011;70272;49.222;-122.892;2024-02-28T08:18:24;1.05;;;0.70;;
80854;SDS011;70272;49.222;-122.892;2024-02-28T08:20:51;0.52;;;0.52;;
80854;SDS011;70272;49.222;-122.892;2024-02-28T08:23:18;0.38;;;0.35;;
80854;SDS011;70272;49.222;-122.892;2024-02-28T08:25:44;1.35;;;1.00;;
80854;SDS011;70272;49.222;-122.892;2024-02-28T08:28:11;0.65;;;0.65;;
80854;SDS011;70272;49.222;-122.892;2024-02-28T08:30:38;1.40;;;0.80;;
80854;SDS011;70272;49.222;-122.892;2024-02-28T08:35:31;0.45;;;0.40;;
80854;SDS011;70272;49.222;-122.892;2024-02-28T08:37:58;0.80;;;0.55;;
80854;SDS011;70272;49.222;-122.892;2024-02-28T08:40:24;0.52;;;0.52;;
80854;SDS011;70272;49.222;-122.892;2024-02-28T08:45:18;0.60;;;0.60;;
80854;SDS011;70272;49.222;-122.892;2024-02-28T08:47:44;1.23;;;0.70;;
80854;SDS011;70272;49.222;-122.892;2024-02-28T08:50:10;0.50;;;0.50;;
80854;SDS011;70272;49.222;-122.892;2024-02-28T08:52:37;0.45;;;0.45;;
80854;SDS011;70272;49.222;-122.892;2024-02-28T08:55:03;0.60;;;0.60;;
80854;SDS011;70272;49.222;-122.892;2024-02-28T08:57:29;1.10;;;1.00;;
80854;SDS011;70272;49.222;-122.892;2024-02-28T08:59:56;0.73;;;0.73;;
80854;SDS011;70272;49.222;-122.892;2024-02-28T09:02:22;1.48;;;0.90;;
80854;SDS011;70272;49.222;-122.892;2024-02-28T09:04:48;0.90;;;0.90;;
80854;SDS011;70272;49.222;-122.892;2024-02-28T09:07:17;0.90;;;0.90;;
80854;SDS011;70272;49.222;-122.892;2024-02-28T09:09:46;1.08;;;0.98;;
80854;SDS011;70272;49.222;-122.892;2024-02-28T09:12:13;0.40;;;0.40;;
80854;SDS011;70272;49.222;-122.892;2024-02-28T09:14:39;0.50;;;0.50;;
80854;SDS011;70272;49.222;-122.892;2024-02-28T09:17:06;0.50;;;0.50;;
80854;SDS011;70272;49.222;-122.892;2024-02-28T09:19:32;1.00;;;0.93;;
80854;SDS011;70272;49.222;-122.892;2024-02-28T09:21:58;1.02;;;0.98;;
80854;SDS011;70272;49.222;-122.892;2024-02-28T09:24:25;0.40;;;0.40;;
80854;SDS011;70272;49.222;-122.892;2024-02-28T09:26:52;0.70;;;0.70;;
80854;SDS011;70272;49.222;-122.892;2024-02-28T09:29:18;0.60;;;0.60;;
80854;SDS011;70272;49.222;-122.892;2024-02-28T09:31:44;0.80;;;0.70;;
80854;SDS011;70272;49.222;-122.892;2024-02-28T09:34:11;2.67;;;1.08;;
80854;SDS011;70272;49.222;-122.892;2024-02-28T09:36:43;0.57;;;0.55;;
80854;SDS011;70272;49.222;-122.892;2024-02-28T09:39:11;0.60;;;0.60;;
80854;SDS011;70272;49.222;-122.892;2024-02-28T09:41:38;0.80;;;0.65;;
80854;SDS011;70272;49.222;-122.892;2024-02-28T09:44:05;0.73;;;0.73;;
80854;SDS011;70272;49.222;-122.892;2024-02-28T09:46:32;1.10;;;0.70;;
80854;SDS011;70272;49.222;-122.892;2024-02-28T09:49:03;0.68;;;0.68;;
80854;SDS011;70272;49.222;-122.892;2024-02-28T09:51:33;1.15;;;1.00;;
80854;SDS011;70272;49.222;-122.892;2024-02-28T09:54:01;1.35;;;1.00;;
80854;SDS011;70272;49.222;-122.892;2024-02-28T09:56:29;1.45;;;1.30;;
80854;SDS011;70272;49.222;-122.892;2024-02-28T09:58:55;1.23;;;1.08;;
80854;SDS011;70272;49.222;-122.892;2024-02-28T10:01:22;1.83;;;1.33;;
80854;SDS011;70272;49.222;-122.892;2024-02-28T10:03:51;1.25;;;1.15;;
80854;SDS011;70272;49.222;-122.892;2024-02-28T10:06:18;0.80;;;0.80;;
80854;SDS011;70272;49.222;-122.892;2024-02-28T10:08:45;1.63;;;1.30;;
80854;SDS011;70272;49.222;-122.892;2024-02-28T10:11:18;1.15;;;0.90;;
80854;SDS011;70272;49.222;-122.892;2024-02-28T10:13:47;1.30;;;1.20;;
80854;SDS011;70272;49.222;-122.892;2024-02-28T10:16:14;1.48;;;1.10;;
80854;SDS011;70272;49.222;-122.892;2024-02-28T10:18:43;1.13;;;0.95;;
80854;SDS011;70272;49.222;-122.892;2024-02-28T10:21:10;2.40;;;1.77;;
80854;SDS011;70272;49.222;-122.892;2024-02-28T10:23:44;0.63;;;0.63;;
80854;SDS011;70272;49.222;-122.892;2024-02-28T10:26:11;1.20;;;1.13;;
80854;SDS011;70272;49.222;-122.892;2024-02-28T10:28:38;1.25;;;1.10;;
80854;SDS011;70272;49.222;-122.892;2024-02-28T10:31:09;1.38;;;1.13;;
80854;SDS011;70272;49.222;-122.892;2024-02-28T10:33:35;1.30;;;1.20;;
80854;SDS011;70272;49.222;-122.892;2024-02-28T10:36:02;1.02;;;1.00;;
80854;SDS011;70272;49.222;-122.892;2024-02-28T10:38:30;1.25;;;0.90;;
80854;SDS011;70272;49.222;-122.892;2024-02-28T10:40:59;1.38;;;1.10;;
80854;SDS011;70272;49.222;-122.892;2024-02-28T10:43:28;1.17;;;1.08;;
80854;SDS011;70272;49.222;-122.892;2024-02-28T10:48:26;1.77;;;1.33;;
80854;SDS011;70272;49.222;-122.892;2024-02-28T10:50:53;1.05;;;0.95;;
80854;SDS011;70272;49.222;-122.892;2024-02-28T10:53:22;2.05;;;1.40;;
80854;SDS011;70272;49.222;-122.892;2024-02-28T10:56:02;1.65;;;1.13;;
80854;SDS011;70272;49.222;-122.892;2024-02-28T10:58:31;1.70;;;1.30;;
80854;SDS011;70272;49.222;-122.892;2024-02-28T11:01:03;0.90;;;0.80;;
80854;SDS011;70272;49.222;-122.892;2024-02-28T11:03:30;1.42;;;1.10;;
80854;SDS011;70272;49.222;-122.892;2024-02-28T11:05:57;1.52;;;1.13;;
80854;SDS011;70272;49.222;-122.892;2024-02-28T11:13:55;0.80;;;0.80;;
80854;SDS011;70272;49.222;-122.892;2024-02-28T11:16:32;0.68;;;0.60;;
80854;SDS011;70272;49.222;-122.892;2024-02-28T11:19:01;1.50;;;1.00;;
80854;SDS011;70272;49.222;-122.892;2024-02-28T11:21:33;1.00;;;1.00;;
80854;SDS011;70272;49.222;-122.892;2024-02-28T11:24:01;0.68;;;0.63;;
80854;SDS011;70272;49.222;-122.892;2024-02-28T11:26:28;1.08;;;0.90;;
80854;SDS011;70272;49.222;-122.892;2024-02-28T11:28:55;1.20;;;0.60;;
80854;SDS011;70272;49.222;-122.892;2024-02-28T11:31:22;1.25;;;1.08;;
80854;SDS011;70272;49.222;-122.892;2024-02-28T11:33:48;0.68;;;0.68;;
80854;SDS011;70272;49.222;-122.892;2024-02-28T11:36:14;0.95;;;0.95;;
80854;SDS011;70272;49.222;-122.892;2024-02-28T11:38:41;0.80;;;0.80;;
80854;SDS011;70272;49.222;-122.892;2024-02-28T11:41:07;0.60;;;0.60;;
80854;SDS011;70272;49.222;-122.892;2024-02-28T11:43:34;0.68;;;0.68;;
80854;SDS011;70272;49.222;-122.892;2024-02-28T11:46:01;0.47;;;0.47;;
80854;SDS011;70272;49.222;-122.892;2024-02-28T11:48:27;0.68;;;0.68;;
80854;SDS011;70272;49.222;-122.892;2024-02-28T11:50:54;0.60;;;0.60;;
80854;SDS011;70272;49.222;-122.892;2024-02-28T11:53:20;1.50;;;1.25;;
80854;SDS011;70272;49.222;-122.892;2024-02-28T11:55:47;0.90;;;0.80;;
80854;SDS011;70272;49.222;-122.892;2024-02-28T11:58:14;1.02;;;0.93;;
80854;SDS011;70272;49.222;-122.892;2024-02-28T12:00:48;1.27;;;1.15;;
80854;SDS011;70272;49.222;-122.892;2024-02-28T12:03:22;0.90;;;0.85;;
80854;SDS011;70272;49.222;-122.892;2024-02-28T12:05:48;2.08;;;1.10;;
80854;SDS011;70272;49.222;-122.892;2024-02-28T12:08:19;1.63;;;1.13;;
80854;SDS011;70272;49.222;-122.892;2024-02-28T12:10:45;1.60;;;1.10;;
80854;SDS011;70272;49.222;-122.892;2024-02-28T12:13:16;0.85;;;0.85;;
80854;SDS011;70272;49.222;-122.892;2024-02-28T12:15:43;0.85;;;0.82;;
80854;SDS011;70272;49.222;-122.892;2024-02-28T12:18:11;1.55;;;0.80;;
80854;SDS011;70272;49.222;-122.892;2024-02-28T12:20:37;1.63;;;1.17;;
80854;SDS011;70272;49.222;-122.892;2024-02-28T12:23:04;1.25;;;1.15;;
80854;SDS011;70272;49.222;-122.892;2024-02-28T12:25:31;0.93;;;0.85;;
80854;SDS011;70272;49.222;-122.892;2024-02-28T12:27:57;1.13;;;1.02;;
80854;SDS011;70272;49.222;-122.892;2024-02-28T12:30:23;1.25;;;1.02;;
80854;SDS011;70272;49.222;-122.892;2024-02-28T12:32:50;1.58;;;1.48;;
80854;SDS011;70272;49.222;-122.892;2024-02-28T12:35:16;2.17;;;1.40;;
80854;SDS011;70272;49.222;-122.892;2024-02-28T12:37:42;2.63;;;0.90;;
80854;SDS011;70272;49.222;-122.892;2024-02-28T12:40:08;1.55;;;1.10;;
80854;SDS011;70272;49.222;-122.892;2024-02-28T12:42:35;1.80;;;1.40;;
80854;SDS011;70272;49.222;-122.892;2024-02-28T12:45:02;2.13;;;1.75;;
80854;SDS011;70272;49.222;-122.892;2024-02-28T12:47:29;2.20;;;1.70;;
80854;SDS011;70272;49.222;-122.892;2024-02-28T12:49:57;2.40;;;1.60;;
80854;SDS011;70272;49.222;-122.892;2024-02-28T12:52:23;2.50;;;1.70;;
80854;SDS011;70272;49.222;-122.892;2024-02-28T12:54:49;2.83;;;1.38;;
80854;SDS011;70272;49.222;-122.892;2024-02-28T12:57:15;2.25;;;1.45;;
80854;SDS011;70272;49.222;-122.892;2024-02-28T12:59:42;1.30;;;1.20;;
80854;SDS011;70272;49.222;-122.892;2024-02-28T13:02:09;1.50;;;1.30;;
80854;SDS011;70272;49.222;-122.892;2024-02-28T13:04:35;2.05;;;1.45;;
80854;SDS011;70272;49.222;-122.892;2024-02-28T13:07:02;2.28;;;1.42;;
80854;SDS011;70272;49.222;-122.892;2024-02-28T13:09:28;1.75;;;1.30;;
80854;SDS011;70272;49.222;-122.892;2024-02-28T13:11:54;1.20;;;1.05;;
80854;SDS011;70272;49.222;-122.892;2024-02-28T13:14:20;2.10;;;1.23;;
80854;SDS011;70272;49.222;-122.892;2024-02-28T13:16:47;1.20;;;1.10;;
80854;SDS011;70272;49.222;-122.892;2024-02-28T13:19:14;3.70;;;1.60;;
80854;SDS011;70272;49.222;-122.892;2024-02-28T13:21:40;2.08;;;1.50;;
80854;SDS011;70272;49.222;-122.892;2024-02-28T13:24:07;2.65;;;1.45;;
80854;SDS011;70272;49.222;-122.892;2024-02-28T13:26:34;2.45;;;1.40;;
80854;SDS011;70272;49.222;-122.892;2024-02-28T13:29:00;2.45;;;1.70;;
80854;SDS011;70272;49.222;-122.892;2024-02-28T13:31:26;2.17;;;1.60;;
80854;SDS011;70272;49.222;-122.892;2024-02-28T13:33:53;3.40;;;1.70;;
80854;SDS011;70272;49.222;-122.892;2024-02-28T13:36:19;2.97;;;1.85;;
80854;SDS011;70272;49.222;-122.892;2024-02-28T13:38:46;2.35;;;1.70;;
80854;SDS011;70272;49.222;-122.892;2024-02-28T13:41:12;2.45;;;1.30;;
80854;SDS011;70272;49.222;-122.892;2024-02-28T13:43:38;2.60;;;1.80;;
80854;SDS011;70272;49.222;-122.892;2024-02-28T13:46:04;2.80;;;1.67;;
80854;SDS011;70272;49.222;-122.892;2024-02-28T13:48:31;4.10;;;1.58;;
80854;SDS011;70272;49.222;-122.892;2024-02-28T13:50:59;2.17;;;1.50;;
80854;SDS011;70272;49.222;-122.892;2024-02-28T13:53:25;3.00;;;1.55;;
80854;SDS011;70272;49.222;-122.892;2024-02-28T13:55:52;1.98;;;1.40;;
80854;SDS011;70272;49.222;-122.892;2024-02-28T13:58:19;3.35;;;1.92;;
80854;SDS011;70272;49.222;-122.892;2024-02-28T14:00:45;3.50;;;1.13;;
80854;SDS011;70272;49.222;-122.892;2024-02-28T14:03:12;2.35;;;1.60;;
80854;SDS011;70272;49.222;-122.892;2024-02-28T14:05:39;2.55;;;1.90;;
80854;SDS011;70272;49.222;-122.892;2024-02-28T14:08:06;4.03;;;1.60;;
80854;SDS011;70272;49.222;-122.892;2024-02-28T14:10:37;3.20;;;1.63;;
80854;SDS011;70272;49.222;-122.892;2024-02-28T14:13:05;2.80;;;2.05;;
80854;SDS011;70272;49.222;-122.892;2024-02-28T14:15:31;4.35;;;2.40;;
80854;SDS011;70272;49.222;-122.892;2024-02-28T14:17:57;5.07;;;2.70;;
80854;SDS011;70272;49.222;-122.892;2024-02-28T14:20:24;4.68;;;2.95;;
80854;SDS011;70272;49.222;-122.892;2024-02-28T14:22:51;4.38;;;2.22;;
80854;SDS011;70272;49.222;-122.892;2024-02-28T14:25:18;3.35;;;2.03;;
80854;SDS011;70272;49.222;-122.892;2024-02-28T14:27:47;2.92;;;1.40;;
80854;SDS011;70272;49.222;-122.892;2024-02-28T14:30:14;3.78;;;2.28;;
80854;SDS011;70272;49.222;-122.892;2024-02-28T14:32:41;4.70;;;2.30;;
80854;SDS011;70272;49.222;-122.892;2024-02-28T14:35:08;2.88;;;1.60;;
80854;SDS011;70272;49.222;-122.892;2024-02-28T14:37:35;2.72;;;1.88;;
80854;SDS011;70272;49.222;-122.892;2024-02-28T14:40:04;4.85;;;2.10;;
80854;SDS011;70272;49.222;-122.892;2024-02-28T14:42:41;4.55;;;2.03;;
80854;SDS011;70272;49.222;-122.892;2024-02-28T14:45:08;2.83;;;2.50;;
80854;SDS011;70272;49.222;-122.892;2024-02-28T14:47:40;3.65;;;2.60;;
80854;SDS011;70272;49.222;-122.892;2024-02-28T14:50:07;4.80;;;2.22;;
80854;SDS011;70272;49.222;-122.892;2024-02-28T14:52:37;3.58;;;2.70;;
80854;SDS011;70272;49.222;-122.892;2024-02-28T14:55:07;6.38;;;3.38;;
80854;SDS011;70272;49.222;-122.892;2024-02-28T14:57:34;9.95;;;4.60;;
80854;SDS011;70272;49.222;-122.892;2024-02-28T15:00:06;3.70;;;2.58;;